createdAt,value
2023-01-11T00:04:51.061Z,100087.38
2023-01-11T00:09:53.959Z,100077.56
2023-01-11T00:14:56.719Z,100075.59
2023-01-11T00:20:00.848Z,100069.09
2023-01-11T00:25:03.723Z,100055.72
2023-01-11T00:30:07.473Z,100049.41
2023-01-11T00:35:11.892Z,100029.78
2023-01-11T00:40:15.180Z,100017.25
2023-01-11T00:45:35.611Z,100019.09
2023-01-11T00:50:41.840Z,100015.56
2023-01-11T00:55:44.913Z,100004.00
2023-01-11T01:00:47.674Z,100012.09
2023-01-11T01:05:55.357Z,100017.50
2023-01-11T01:10:58.102Z,100018.34
2023-01-11T01:16:00.988Z,100020.34
2023-01-11T01:21:05.169Z,100016.78
2023-01-11T01:26:08.134Z,100018.25
2023-01-11T01:31:10.987Z,100016.28
2023-01-11T01:36:15.136Z,100007.06
2023-01-11T01:41:18.165Z,99998.22
2023-01-11T01:46:22.355Z,99987.41
2023-01-11T01:51:31.561Z,99988.16
2023-01-11T01:56:37.486Z,99981.66
2023-01-11T02:01:49.701Z,99974.28
2023-01-11T02:06:58.928Z,99956.38
2023-01-11T02:12:02.082Z,99952.63
2023-01-11T02:17:05.188Z,99954.50
2023-01-11T02:22:28.260Z,99954.13
2023-01-11T02:27:55.591Z,99932.56
2023-01-11T02:33:09.300Z,99919.53
2023-01-11T02:38:18.263Z,99917.19
2023-01-11T02:43:46.001Z,99932.66
2023-01-11T02:48:59.958Z,99920.25
2023-01-11T02:54:07.141Z,99908.69
2023-01-11T02:59:13.243Z,99916.72
2023-01-11T03:04:28.444Z,99909.09
2023-01-11T03:09:45.125Z,99889.97
2023-01-11T03:15:00.203Z,99881.00
2023-01-11T03:20:11.946Z,99871.13
2023-01-11T03:25:21.012Z,99845.53
2023-01-11T03:30:31.567Z,99823.63
2023-01-11T03:35:41.859Z,99833.88
2023-01-11T03:40:49.094Z,99839.47
2023-01-11T03:45:55.861Z,99844.34
2023-01-11T03:51:02.113Z,99814.44
2023-01-11T03:56:10.791Z,99815.53
2023-01-11T04:01:14.806Z,99822.75
2023-01-11T04:06:20.186Z,99818.81
2023-01-11T04:11:23.059Z,99817.19
2023-01-11T04:16:25.906Z,99817.53
2023-01-11T04:21:30.186Z,99822.31
2023-01-11T04:26:33.160Z,99829.63
2023-01-11T04:31:35.978Z,99825.66
2023-01-11T04:36:40.172Z,99816.09
2023-01-11T04:42:00.597Z,99810.25
2023-01-11T04:47:03.372Z,99805.06
2023-01-11T04:52:08.002Z,99792.72
2023-01-11T04:57:14.186Z,99798.31
2023-01-11T05:02:17.431Z,99804.88
2023-01-11T05:07:21.535Z,99789.06
2023-01-11T05:12:24.631Z,99771.47
2023-01-11T05:17:27.441Z,99769.00
2023-01-11T05:22:31.670Z,99761.19
2023-01-11T05:27:34.531Z,99742.56
2023-01-11T05:32:37.260Z,99746.13
2023-01-11T05:37:41.410Z,99741.81
2023-01-11T05:42:46.872Z,99728.56
2023-01-11T05:47:49.671Z,99727.00
2023-01-11T05:52:54.131Z,99735.78
2023-01-11T05:57:56.896Z,99727.00
2023-01-11T06:03:01.808Z,99720.50
2023-01-11T06:08:06.324Z,99721.81
2023-01-11T06:13:28.036Z,99718.41
2023-01-11T06:18:32.697Z,99709.69
2023-01-11T06:23:39.051Z,99714.09
2023-01-11T06:28:42.456Z,99719.47
2023-01-11T06:33:45.807Z,99732.16
2023-01-11T06:38:50.121Z,99734.72
2023-01-11T06:43:52.868Z,99744.00
2023-01-11T06:48:55.629Z,99769.06
2023-01-11T06:53:59.732Z,99765.50
2023-01-11T06:59:02.490Z,99750.34
2023-01-11T07:04:05.686Z,99740.56
2023-01-11T07:09:09.954Z,99733.47
2023-01-11T07:14:15.050Z,99731.97
2023-01-11T07:19:18.510Z,99729.41
2023-01-11T07:24:24.303Z,99734.91
2023-01-11T07:29:27.073Z,99724.25
2023-01-11T07:34:29.807Z,99726.31
2023-01-11T07:39:43.123Z,99725.47
2023-01-11T07:44:46.510Z,99728.34
2023-01-11T07:49:49.509Z,99719.44
2023-01-11T07:54:53.815Z,99728.34
2023-01-11T07:59:56.603Z,99734.81
2023-01-11T08:05:00.006Z,99735.78
2023-01-11T08:10:06.099Z,99728.69
2023-01-11T08:15:10.394Z,99731.38
2023-01-11T08:20:13.541Z,99718.91
2023-01-11T08:25:17.894Z,99720.75
2023-01-11T08:30:20.880Z,99722.44
2023-01-11T08:35:23.805Z,99718.78
2023-01-11T08:40:28.228Z,99709.03
2023-01-11T08:45:31.367Z,99715.47
2023-01-11T08:50:34.149Z,99709.25
2023-01-11T08:55:38.275Z,99706.56
2023-01-11T09:00:41.130Z,99706.66
2023-01-11T09:05:43.856Z,99693.22
2023-01-11T09:10:47.965Z,99701.19
2023-01-11T09:15:52.250Z,99696.81
2023-01-11T09:20:55.035Z,99686.06
2023-01-11T09:25:59.197Z,99685.94
2023-01-11T09:31:01.972Z,99680.00
2023-01-11T09:36:05.191Z,99695.41
2023-01-11T09:41:24.084Z,99685.00
2023-01-11T09:46:29.349Z,99701.22
2023-01-11T09:51:37.399Z,99694.78
2023-01-11T09:56:49.971Z,99675.91
2023-01-11T10:02:05.434Z,99643.06
2023-01-11T10:07:24.962Z,99647.19
2023-01-11T10:18:52.891Z,99648.16
2023-01-11T10:23:54.191Z,99633.69
2023-01-11T10:29:21.879Z,99631.09
2023-01-11T10:34:42.677Z,99620.94
2023-01-11T10:40:15.403Z,99608.28
2023-01-11T10:45:25.339Z,99609.25
2023-01-11T10:50:34.763Z,99603.13
2023-01-11T10:55:47.340Z,99603.44
2023-01-11T11:00:58.662Z,99610.06
2023-01-11T11:06:09.494Z,99595.25
2023-01-11T11:11:18.933Z,99587.78
2023-01-11T11:16:39.324Z,99584.72
2023-01-11T11:21:43.757Z,99576.34
2023-01-11T11:26:54.864Z,99576.22
2023-01-11T11:32:02.012Z,99566.25
2023-01-11T11:37:04.849Z,99575.16
2023-01-11T11:42:15.941Z,99579.59
2023-01-11T11:47:20.156Z,99572.69
2023-01-11T11:52:22.980Z,99566.88
2023-01-11T11:57:28.678Z,99561.81
2023-01-11T12:02:35.497Z,99555.88
2023-01-11T12:07:54.258Z,99559.00
2023-01-11T12:13:00.021Z,99559.28
2023-01-11T12:18:26.429Z,99557.16
2023-01-11T12:23:29.477Z,99554.13
2023-01-11T12:29:07.707Z,99551.13
2023-01-11T12:34:22.804Z,99558.81
2023-01-11T12:39:36.965Z,99546.03
2023-01-11T12:45:02.762Z,99552.13
2023-01-11T12:50:16.594Z,99545.69
2023-01-11T12:55:40.184Z,99542.75
2023-01-11T13:01:12.635Z,99545.22
2023-01-11T13:06:23.829Z,99548.56
2023-01-11T13:11:40.228Z,99543.91
2023-01-11T13:16:51.853Z,99546.47
2023-01-11T13:21:57.809Z,99549.06
2023-01-11T13:27:04.421Z,99547.25
2023-01-11T13:32:13.308Z,99547.97
2023-01-11T13:37:25.199Z,99564.81
2023-01-11T13:42:35.857Z,99561.19
2023-01-11T13:47:43.384Z,99561.19
2023-01-11T13:53:00.743Z,99564.59
2023-01-11T13:58:10.994Z,99572.09
2023-01-11T14:03:28.250Z,99580.31
2023-01-11T14:08:57.755Z,99582.94
2023-01-11T14:14:18.451Z,99590.09
2023-01-11T14:19:29.623Z,99595.75
2023-01-11T14:24:38.957Z,99606.03
2023-01-11T14:30:07.173Z,99609.09
2023-01-11T14:35:40.969Z,99613.28
2023-01-11T14:41:14.893Z,99608.16
2023-01-11T14:46:33.038Z,99607.94
2023-01-11T14:51:47.865Z,99621.28
2023-01-11T14:56:55.254Z,99611.53
2023-01-11T15:02:24.906Z,99607.25
2023-01-11T15:07:36.575Z,99617.31
2023-01-11T15:12:42.176Z,99623.91
2023-01-11T15:18:03.437Z,99623.91
2023-01-11T15:23:06.932Z,99619.66
2023-01-11T15:28:39.243Z,99626.00
2023-01-11T15:33:50.839Z,99617.91
2023-01-11T15:39:00.970Z,99624.38
2023-01-11T15:44:24.095Z,99630.00
2023-01-11T15:50:06.536Z,99644.69
2023-01-11T15:55:29.335Z,99656.31
2023-01-11T16:01:08.838Z,99662.91
2023-01-11T16:06:19.431Z,99680.56
2023-01-11T16:11:32.505Z,99689.84
2023-01-11T16:16:41.333Z,99694.88
2023-01-11T16:21:48.557Z,99705.03
2023-01-11T16:26:55.753Z,99707.31
2023-01-11T16:32:02.007Z,99691.50
2023-01-11T16:37:21.798Z,99702.75
2023-01-11T16:42:27.584Z,99714.00
2023-01-11T16:47:31.687Z,99718.19
2023-01-11T16:52:40.006Z,99720.72
2023-01-11T16:57:47.247Z,99735.22
2023-01-11T17:03:02.104Z,99741.06
2023-01-11T17:08:25.724Z,99751.50
2023-01-11T17:14:10.175Z,99760.31
2023-01-11T17:19:17.172Z,99770.84
2023-01-11T17:24:24.718Z,99776.06
2023-01-11T17:29:31.163Z,99771.91
2023-01-11T17:34:37.202Z,99784.78
2023-01-11T17:39:44.192Z,99775.41
2023-01-11T17:45:05.900Z,99782.41
2023-01-11T17:50:22.171Z,99786.81
2023-01-11T17:55:27.967Z,99792.94
2023-01-11T18:00:30.819Z,99791.84
2023-01-11T18:05:35.698Z,99800.66
2023-01-11T18:10:41.068Z,99808.66
2023-01-11T18:15:48.464Z,99806.66
2023-01-11T18:20:52.733Z,99817.59
2023-01-11T18:26:26.020Z,99820.03
2023-01-11T18:31:28.918Z,99824.44
2023-01-11T18:36:33.089Z,99825.03
2023-01-11T18:41:54.207Z,99827.75
2023-01-11T18:46:56.971Z,99828.22
2023-01-11T18:52:01.218Z,99835.59
2023-01-11T18:57:04.153Z,99850.06
2023-01-11T19:02:17.955Z,99857.91
2023-01-11T19:07:23.203Z,99868.44
2023-01-11T19:12:26.212Z,99875.59
2023-01-11T19:17:29.018Z,99884.28
2023-01-11T19:22:33.126Z,99893.22
2023-01-11T19:27:36.758Z,99901.22
2023-01-11T19:32:39.574Z,99897.41
2023-01-11T19:37:43.995Z,99895.81
2023-01-11T19:42:47.558Z,99901.94
2023-01-11T19:47:50.314Z,99899.97
2023-01-11T19:52:54.490Z,99910.09
2023-01-11T19:57:57.295Z,99912.41
2023-01-11T20:03:05.708Z,99914.25
2023-01-11T20:08:09.868Z,99923.22
2023-01-11T20:13:12.690Z,99933.03
2023-01-11T20:18:15.522Z,99937.56
2023-01-11T20:23:19.617Z,99958.06
2023-01-11T20:28:22.328Z,99958.06
2023-01-11T20:33:25.444Z,99975.03
2023-01-11T20:38:29.620Z,99974.28
2023-01-11T20:43:32.779Z,99975.03
2023-01-11T20:48:36.539Z,99976.97
2023-01-11T20:53:41.389Z,99982.13
2023-01-11T20:58:46.585Z,99977.44
2023-01-11T21:03:49.346Z,99975.75
2023-01-11T21:08:56.929Z,99988.25
2023-01-11T21:14:00.960Z,99980.16
2023-01-11T21:19:05.397Z,99973.75
2023-01-11T21:24:13.000Z,99985.34
2023-01-11T21:29:15.935Z,99978.44
2023-01-11T21:34:19.172Z,99976.47
2023-01-11T21:39:23.421Z,99968.50
2023-01-11T21:44:30.586Z,99966.53
2023-01-11T21:49:34.398Z,99978.31
2023-01-11T21:54:38.610Z,99973.75
2023-01-11T21:59:41.504Z,99971.06
2023-01-11T22:04:44.265Z,99967.50
2023-01-11T22:10:03.796Z,99970.09
2023-01-11T22:15:08.742Z,99968.25
2023-01-11T22:20:15.020Z,99980.75
2023-01-11T22:25:19.274Z,99973.75
2023-01-11T22:30:22.160Z,99975.38
2023-01-11T22:35:24.942Z,99977.22
2023-01-11T22:40:29.056Z,99989.97
2023-01-11T22:45:31.865Z,100001.81
2023-01-11T22:50:34.751Z,99988.41
2023-01-11T22:55:38.887Z,99991.72
2023-01-11T23:00:41.642Z,99997.13
2023-01-11T23:05:46.179Z,99983.47
2023-01-11T23:10:50.310Z,99986.31
2023-01-11T23:15:53.607Z,99979.06
2023-01-11T23:20:56.364Z,99963.56
2023-01-11T23:26:00.508Z,99964.16
2023-01-11T23:31:09.190Z,99951.91
2023-01-11T23:36:12.183Z,99943.66
2023-01-11T23:41:36.235Z,99940.84
2023-01-11T23:46:57.266Z,99944.41
2023-01-11T23:52:00.905Z,99937.38
2023-01-11T23:57:05.829Z,99942.41
